Time;durP1;ratioP1;P1;durP2;ratioP2;P2;SDS_P1;SDS_P2;PMS_P1;PMS_P2;Temp;Humidity;BMP_temperature;BMP_pressure;BME280_temperature;BME280_humidity;BME280_pressure;Samples;Min_cycle;Max_cycle;Signal;HPM_P1;HPM_P2
2023/09/09 00:00:49;;;;;;;19.43;14.30;;;23.70;1.00;;;;;;5083125;28;21049;-80
2023/09/09 00:03:14;;;;;;;18.63;15.07;;;23.70;1.00;;;;;;5085042;28;20435;-83
2023/09/09 00:05:40;;;;;;;20.63;16.20;;;23.60;1.00;;;;;;5070318;28;20967;-84
2023/09/09 00:08:06;;;;;;;20.03;16.50;;;23.60;1.00;;;;;;5084443;28;20185;-83
2023/09/09 00:10:36;;;;;;;22.00;17.17;;;23.60;1.00;;;;;;5061952;28;20205;-82
2023/09/09 00:13:03;;;;;;;21.50;17.03;;;23.60;1.00;;;;;;5085705;28;20506;-82
2023/09/09 00:15:29;;;;;;;23.23;16.13;;;23.50;1.00;;;;;;5073665;28;20921;-83
2023/09/09 00:17:55;;;;;;;19.27;14.83;;;23.50;1.00;;;;;;5079186;28;20435;-83
2023/09/09 00:20:33;;;;;;;19.80;14.27;;;23.50;1.00;;;;;;5061205;28;20537;-83
2023/09/09 00:23:09;;;;;;;18.00;14.33;;;23.50;1.00;;;;;;5080009;28;20441;-84
2023/09/09 00:25:36;;;;;;;19.30;14.57;;;23.40;1.00;;;;;;5077132;28;20458;-84
2023/09/09 00:28:02;;;;;;;19.73;14.67;;;23.40;1.00;;;;;;5074484;28;20447;-82
2023/09/09 00:30:28;;;;;;;18.23;14.70;;;23.30;1.00;;;;;;5076482;28;20455;-83
2023/09/09 00:32:53;;;;;;;21.87;14.83;;;23.20;1.00;;;;;;5080152;28;20438;-83
2023/09/09 00:35:19;;;;;;;22.10;16.20;;;23.20;8.60;;;;;;5072784;28;20455;-83
2023/09/09 00:37:45;;;;;;;22.23;16.93;;;23.20;33.80;;;;;;5055695;28;20190;-84
2023/09/09 00:40:11;;;;;;;21.97;17.30;;;23.10;99.90;;;;;;5054376;28;21001;-83
2023/09/09 00:42:36;;;;;;;30.60;19.07;;;23.00;99.90;;;;;;5079764;28;20268;-84
2023/09/09 00:45:03;;;;;;;24.77;18.90;;;23.00;99.90;;;;;;5060013;28;20471;-84
2023/09/09 00:47:28;;;;;;;24.57;18.00;;;23.00;99.90;;;;;;5074650;28;20213;-83
2023/09/09 00:49:54;;;;;;;20.70;18.00;;;23.00;1.00;;;;;;5073538;28;21008;-83
2023/09/09 00:52:19;;;;;;;21.70;18.63;;;22.90;1.00;;;;;;5072023;28;20206;-84
2023/09/09 00:54:46;;;;;;;29.20;18.00;;;22.90;28.10;;;;;;5075944;28;20194;-85
2023/09/09 00:57:13;;;;;;;21.80;17.50;;;22.80;17.60;;;;;;5073963;28;20186;-81
2023/09/09 00:59:38;;;;;;;28.57;18.13;;;22.80;41.30;;;;;;5076614;28;20459;-84
2023/09/09 01:02:04;;;;;;;20.53;15.60;;;22.80;32.00;;;;;;5078058;28;20503;-81
2023/09/09 01:04:30;;;;;;;17.97;16.13;;;22.80;99.90;;;;;;5070713;28;20194;-83
2023/09/09 01:06:57;;;;;;;21.63;17.40;;;22.70;3.20;;;;;;5060113;28;20256;-82
2023/09/09 01:09:22;;;;;;;20.70;16.00;;;22.70;1.00;;;;;;5057845;28;20511;-83
2023/09/09 01:11:48;;;;;;;15.90;14.13;;;22.70;87.30;;;;;;5075316;28;20431;-82
2023/09/09 01:14:14;;;;;;;20.40;16.17;;;22.60;99.90;;;;;;5070947;28;20192;-82
2023/09/09 01:16:41;;;;;;;25.13;17.30;;;22.60;99.90;;;;;;5075447;28;20258;-83
2023/09/09 01:19:10;;;;;;;21.90;18.77;;;22.60;99.90;;;;;;5067294;28;20186;-83
2023/09/09 01:21:38;;;;;;;22.10;17.73;;;22.50;99.90;;;;;;5055869;28;20455;-81
2023/09/09 01:24:05;;;;;;;17.43;15.73;;;22.50;99.90;;;;;;5072601;28;20499;-83
2023/09/09 01:26:31;;;;;;;21.20;17.53;;;22.50;99.90;;;;;;5073665;28;20463;-84
2023/09/09 01:28:56;;;;;;;19.47;16.47;;;22.50;99.90;;;;;;5066419;28;20487;-83
2023/09/09 01:31:22;;;;;;;24.23;18.63;;;22.50;99.90;;;;;;5070741;28;20201;-83
2023/09/09 01:33:48;;;;;;;22.77;18.87;;;22.40;99.90;;;;;;5054407;28;20538;-83
2023/09/09 01:36:14;;;;;;;20.47;18.47;;;22.40;99.90;;;;;;5065161;28;20186;-83
2023/09/09 01:38:39;;;;;;;20.17;18.10;;;22.40;1.00;;;;;;5062493;28;20872;-84
2023/09/09 01:41:05;;;;;;;21.17;18.97;;;22.40;99.90;;;;;;5050921;28;20209;-82
2023/09/09 01:43:30;;;;;;;22.60;19.67;;;22.40;99.90;;;;;;5075072;28;20185;-83
2023/09/09 01:45:56;;;;;;;21.27;18.13;;;22.30;99.90;;;;;;5077144;28;20216;-84
2023/09/09 01:48:21;;;;;;;22.63;19.43;;;22.30;99.90;;;;;;5068401;28;20711;-82
2023/09/09 01:50:47;;;;;;;23.77;20.20;;;22.30;99.90;;;;;;5045864;28;20255;-82
2023/09/09 01:53:12;;;;;;;24.67;19.60;;;22.30;1.00;;;;;;5073210;28;20218;-84
2023/09/09 01:55:38;;;;;;;21.67;19.40;;;22.20;1.00;;;;;;5076552;28;20708;-82
2023/09/09 01:58:03;;;;;;;21.97;19.77;;;22.20;99.90;;;;;;5071758;28;20182;-83
2023/09/09 02:00:30;;;;;;;20.87;18.77;;;22.20;99.90;;;;;;5066599;28;20193;-83
2023/09/09 02:02:56;;;;;;;21.67;19.43;;;22.10;99.90;;;;;;5065728;28;20181;-82
2023/09/09 02:05:21;;;;;;;21.17;19.10;;;22.10;1.00;;;;;;5073886;28;20432;-83
2023/09/09 02:07:47;;;;;;;19.73;17.83;;;21.90;1.00;;;;;;5074523;28;20196;-82
2023/09/09 02:10:12;;;;;;;23.53;19.80;;;21.90;1.00;;;;;;5073597;28;20313;-82
2023/09/09 02:12:38;;;;;;;21.40;18.60;;;21.90;49.40;;;;;;5064410;28;20241;-81
2023/09/09 02:15:04;;;;;;;19.50;17.40;;;21.90;99.90;;;;;;5054250;28;20272;-84
2023/09/09 02:17:30;;;;;;;20.70;18.80;;;21.90;99.90;;;;;;5072110;28;20181;-84
2023/09/09 02:19:56;;;;;;;24.00;18.97;;;21.90;99.90;;;;;;5067449;28;20995;-82
2023/09/09 02:22:22;;;;;;;27.20;18.60;;;21.90;99.90;;;;;;5067381;28;20188;-84
2023/09/09 02:24:52;;;;;;;23.00;18.97;;;21.90;99.90;;;;;;5066592;28;20451;-82
2023/09/09 02:27:18;;;;;;;21.17;19.13;;;21.80;99.90;;;;;;5055183;28;20294;-82
2023/09/09 02:29:43;;;;;;;20.67;18.23;;;21.80;99.90;;;;;;5072809;28;20488;-82
2023/09/09 02:32:09;;;;;;;20.13;18.23;;;21.70;99.90;;;;;;5054914;28;20181;-81
2023/09/09 02:34:34;;;;;;;21.70;19.50;;;21.70;99.90;;;;;;5069894;28;20216;-82
2023/09/09 02:37:17;;;;;;;22.77;20.37;;;21.70;99.90;;;;;;5069071;28;20209;-83
2023/09/09 02:39:43;;;;;;;24.97;19.83;;;21.60;1.00;;;;;;5072927;28;20739;-82
2023/09/09 02:42:12;;;;;;;22.03;18.57;;;21.60;1.00;;;;;;5072594;28;20504;-81
2023/09/09 02:44:37;;;;;;;24.77;19.30;;;21.60;1.00;;;;;;5072073;28;20435;-84
2023/09/09 02:47:03;;;;;;;21.03;18.83;;;21.60;1.00;;;;;;5063882;28;20527;-83
2023/09/09 02:49:29;;;;;;;24.93;20.53;;;21.60;1.00;;;;;;5073872;28;20777;-83
2023/09/09 02:51:54;;;;;;;21.63;19.50;;;21.60;1.00;;;;;;5071861;28;20505;-81
2023/09/09 02:54:20;;;;;;;20.90;18.80;;;21.50;99.90;;;;;;5057600;28;20185;-83
2023/09/09 02:56:45;;;;;;;21.80;19.33;;;21.60;94.50;;;;;;5071309;28;20255;-82
2023/09/09 02:59:11;;;;;;;23.43;19.27;;;21.50;1.00;;;;;;5062101;28;20571;-83
2023/09/09 03:01:36;;;;;;;23.10;20.77;;;21.50;1.00;;;;;;5064710;28;20194;-83
2023/09/09 03:04:02;;;;;;;21.33;19.03;;;21.50;1.00;;;;;;5070102;28;20703;-83
2023/09/09 03:06:27;;;;;;;24.57;18.50;;;21.40;1.00;;;;;;5071911;28;20186;-83
2023/09/09 03:08:53;;;;;;;22.80;19.67;;;21.40;1.00;;;;;;5069141;28;20199;-82
2023/09/09 03:11:18;;;;;;;20.90;18.80;;;21.30;1.00;;;;;;5074606;28;20178;-83
2023/09/09 03:13:44;;;;;;;20.50;18.30;;;21.30;1.00;;;;;;5047855;28;20249;-82
2023/09/09 03:16:09;;;;;;;18.33;16.40;;;21.30;1.00;;;;;;5071044;28;20216;-82
2023/09/09 03:18:35;;;;;;;21.90;19.70;;;21.30;1.00;;;;;;5071940;28;20264;-83
2023/09/09 03:21:02;;;;;;;20.10;17.17;;;21.30;1.00;;;;;;5069417;28;20288;-82
2023/09/09 03:23:27;;;;;;;20.03;18.13;;;21.20;1.00;;;;;;5069256;28;20179;-83
2023/09/09 03:25:53;;;;;;;21.30;19.13;;;21.20;15.20;;;;;;5054790;28;20556;-82
2023/09/09 03:28:18;;;;;;;23.03;19.70;;;21.20;99.90;;;;;;5072940;28;20189;-82
2023/09/09 03:30:59;;;;;;;25.03;20.53;;;21.10;99.90;;;;;;5071097;28;20213;-83
2023/09/09 03:33:28;;;;;;;22.13;18.87;;;21.10;99.90;;;;;;5072658;28;20193;-82
2023/09/09 03:35:54;;;;;;;24.10;20.03;;;21.10;99.90;;;;;;5047268;28;20466;-83
2023/09/09 03:38:19;;;;;;;20.60;17.90;;;21.10;1.00;;;;;;5066230;28;20439;-82
2023/09/09 03:40:45;;;;;;;23.07;20.77;;;21.10;1.00;;;;;;5072233;28;20455;-82
2023/09/09 03:43:14;;;;;;;27.50;18.20;;;21.10;1.00;;;;;;5066227;28;20545;-82
2023/09/09 03:45:39;;;;;;;21.40;18.30;;;21.10;99.90;;;;;;5072202;28;20219;-82
2023/09/09 03:48:05;;;;;;;24.80;19.13;;;21.10;99.90;;;;;;5054582;28;20975;-82
2023/09/09 03:50:31;;;;;;;20.03;18.07;;;21.10;99.90;;;;;;5067968;28;20286;-82
2023/09/09 03:52:57;;;;;;;25.10;18.13;;;21.10;99.90;;;;;;5072640;28;20192;-82
2023/09/09 03:55:23;;;;;;;24.13;17.20;;;21.10;99.90;;;;;;5065941;28;20419;-81
2023/09/09 03:57:48;;;;;;;19.93;17.80;;;21.10;99.90;;;;;;5067519;28;20220;-82
2023/09/09 04:00:14;;;;;;;20.73;17.43;;;21.00;99.90;;;;;;5067654;28;20288;-81
2023/09/09 04:02:40;;;;;;;19.27;17.30;;;21.00;99.90;;;;;;5064837;28;20189;-82
2023/09/09 04:05:07;;;;;;;19.83;17.63;;;21.00;1.00;;;;;;5073693;28;20439;-83
2023/09/09 04:07:35;;;;;;;20.07;18.13;;;21.00;1.00;;;;;;5071320;28;20170;-82
2023/09/09 04:10:02;;;;;;;19.73;17.73;;;21.00;1.00;;;;;;5063453;28;20546;-82
2023/09/09 04:12:27;;;;;;;21.27;19.00;;;21.00;1.00;;;;;;5065769;28;21016;-82
2023/09/09 04:14:53;;;;;;;21.07;18.70;;;20.90;1.00;;;;;;5074680;28;20470;-82
2023/09/09 04:17:18;;;;;;;19.77;17.67;;;20.90;22.00;;;;;;5050392;28;20579;-82
2023/09/09 04:19:44;;;;;;;21.93;19.60;;;20.90;39.40;;;;;;5065646;28;20236;-83
2023/09/09 04:22:09;;;;;;;20.97;17.20;;;20.80;99.90;;;;;;5061416;28;20189;-82
2023/09/09 04:24:35;;;;;;;20.80;18.60;;;20.80;99.90;;;;;;5075112;28;20193;-82
2023/09/09 04:27:00;;;;;;;21.57;18.40;;;20.80;99.90;;;;;;5077336;28;20185;-81
2023/09/09 04:29:25;;;;;;;24.20;20.20;;;20.80;99.90;;;;;;5053274;28;20205;-84
2023/09/09 04:31:51;;;;;;;24.50;21.23;;;20.80;99.90;;;;;;5071264;28;20194;-83
2023/09/09 04:34:16;;;;;;;21.73;19.37;;;20.70;99.90;;;;;;5064427;28;20219;-82
2023/09/09 04:36:42;;;;;;;22.77;20.53;;;20.70;99.90;;;;;;5049804;28;20700;-83
2023/09/09 04:39:08;;;;;;;21.90;19.60;;;20.70;99.90;;;;;;5075474;28;20544;-82
2023/09/09 04:41:33;;;;;;;23.57;21.17;;;20.70;1.00;;;;;;5076201;28;20260;-83
2023/09/09 04:43:59;;;;;;;23.03;20.53;;;20.70;1.00;;;;;;5049227;28;20206;-82
2023/09/09 04:46:24;;;;;;;23.67;20.97;;;20.60;1.00;;;;;;5063188;28;20763;-82
2023/09/09 04:48:53;;;;;;;24.87;21.73;;;20.60;1.00;;;;;;5077526;28;20197;-81
2023/09/09 04:51:18;;;;;;;25.50;22.70;;;20.60;1.00;;;;;;5075953;28;20177;-82
2023/09/09 04:53:44;;;;;;;23.67;20.93;;;20.60;1.00;;;;;;5073790;28;20939;-83
2023/09/09 04:56:09;;;;;;;26.40;21.57;;;20.60;22.40;;;;;;5067277;28;20205;-82
2023/09/09 04:58:35;;;;;;;30.43;21.83;;;20.60;46.30;;;;;;5078925;28;20192;-82
2023/09/09 05:01:00;;;;;;;24.73;20.70;;;20.50;99.90;;;;;;5079083;28;20196;-83
2023/09/09 05:03:26;;;;;;;25.23;20.73;;;20.50;44.50;;;;;;5076223;28;20188;-82
2023/09/09 05:05:51;;;;;;;23.00;20.50;;;20.40;23.20;;;;;;5076440;28;20213;-83
2023/09/09 05:08:17;;;;;;;23.40;19.50;;;20.40;56.70;;;;;;5078097;28;20216;-79
2023/09/09 05:10:42;;;;;;;23.17;20.67;;;20.50;46.80;;;;;;5072762;28;20296;-82
2023/09/09 05:13:08;;;;;;;23.60;21.20;;;20.50;18.00;;;;;;5073728;28;20216;-82
2023/09/09 05:15:35;;;;;;;22.57;19.40;;;20.50;95.10;;;;;;5073029;28;20188;-81
2023/09/09 05:18:00;;;;;;;20.83;18.83;;;20.60;1.00;;;;;;5072859;28;20174;-82
2023/09/09 05:20:27;;;;;;;24.23;18.77;;;20.60;1.00;;;;;;5057695;28;20531;-82
2023/09/09 05:22:52;;;;;;;22.60;19.40;;;20.70;99.90;;;;;;5057473;28;20182;-82
2023/09/09 05:25:17;;;;;;;20.93;18.70;;;20.70;99.90;;;;;;5075182;28;20424;-80
2023/09/09 05:27:43;;;;;;;24.23;20.00;;;20.70;99.90;;;;;;5066669;28;20189;-82
2023/09/09 05:30:10;;;;;;;26.93;19.20;;;20.80;99.90;;;;;;5052890;28;20213;-81
2023/09/09 05:32:36;;;;;;;23.07;18.27;;;20.90;1.00;;;;;;5067599;28;20436;-82
2023/09/09 05:35:02;;;;;;;20.70;18.53;;;21.10;99.90;;;;;;5067316;28;20479;-84
2023/09/09 05:37:30;;;;;;;24.10;17.57;;;21.30;1.00;;;;;;5064239;28;21033;-82
2023/09/09 05:39:56;;;;;;;20.60;18.47;;;21.40;99.90;;;;;;5055009;28;21037;-80
2023/09/09 05:42:22;;;;;;;21.63;16.67;;;21.60;1.00;;;;;;5063804;28;20523;-80
2023/09/09 05:44:48;;;;;;;19.07;17.07;;;22.40;1.00;;;;;;5067377;28;20181;-81
2023/09/09 05:47:13;;;;;;;18.50;15.93;;;23.90;8.50;;;;;;5047693;28;20436;-81
2023/09/09 05:49:39;;;;;;;17.87;15.90;;;25.30;99.90;;;;;;5059601;28;20281;-81
2023/09/09 05:52:05;;;;;;;18.90;15.17;;;26.60;1.00;;;;;;5061482;28;20664;-82
2023/09/09 05:54:30;;;;;;;19.67;15.37;;;27.80;1.00;;;;;;5063548;28;20196;-81
2023/09/09 05:57:14;;;;;;;23.23;15.10;;;28.90;1.00;;;;;;5065322;28;20202;-81
2023/09/09 05:59:39;;;;;;;15.73;14.20;;;30.10;1.00;;;;;;5054120;28;20210;-82
2023/09/09 06:02:08;;;;;;;15.50;13.40;;;31.10;1.00;;;;;;5071492;28;20815;-80
2023/09/09 06:04:33;;;;;;;17.40;12.70;;;32.20;1.00;;;;;;5069906;28;20206;-81
2023/09/09 06:07:07;;;;;;;13.00;11.80;;;33.60;1.00;;;;;;5069117;28;21093;-82
2023/09/09 06:09:33;;;;;;;13.27;11.90;;;34.60;1.00;;;;;;5069062;28;20493;-82
2023/09/09 06:11:58;;;;;;;13.20;11.83;;;35.80;99.90;;;;;;5066198;28;20500;-82
2023/09/09 06:14:24;;;;;;;14.50;11.30;;;36.90;99.90;;;;;;5076579;28;20209;-82
2023/09/09 06:16:49;;;;;;;12.37;11.30;;;37.90;99.90;;;;;;5062767;28;20631;-81
2023/09/09 06:19:15;;;;;;;12.20;10.90;;;38.60;99.90;;;;;;5060667;28;20205;-83
2023/09/09 06:21:41;;;;;;;12.23;10.83;;;39.30;99.90;;;;;;5071927;28;20711;-82
2023/09/09 06:24:07;;;;;;;11.40;10.40;;;40.00;99.90;;;;;;5065887;28;20205;-80
2023/09/09 06:26:33;;;;;;;11.73;10.60;;;41.00;99.90;;;;;;5060453;28;20186;-83
2023/09/09 06:29:00;;;;;;;11.70;10.60;;;41.60;99.90;;;;;;5060807;28;20430;-83
2023/09/09 06:31:26;;;;;;;13.53;9.93;;;42.30;99.90;;;;;;5059623;28;20480;-81
2023/09/09 06:33:51;;;;;;;12.50;9.97;;;42.90;99.90;;;;;;5053583;28;20456;-81
2023/09/09 06:36:20;;;;;;;14.20;10.13;;;43.60;99.90;;;;;;5048468;28;20292;-84
2023/09/09 06:38:45;;;;;;;10.60;9.70;;;44.30;99.90;;;;;;5051561;28;20186;-82
2023/09/09 06:41:13;;;;;;;14.03;9.87;;;45.10;99.90;;;;;;5057322;28;20462;-83
2023/09/09 06:43:38;;;;;;;11.90;9.80;;;45.40;99.90;;;;;;5061343;28;20213;-83
2023/09/09 06:46:04;;;;;;;10.57;9.60;;;45.90;99.90;;;;;;5054341;28;20415;-82
2023/09/09 06:48:30;;;;;;;11.87;10.60;;;46.60;99.90;;;;;;5034916;28;20252;-82
2023/09/09 06:50:56;;;;;;;10.23;9.33;;;47.20;99.90;;;;;;5064267;28;20570;-83
2023/09/09 06:53:22;;;;;;;12.93;8.90;;;47.80;99.90;;;;;;5072346;28;20176;-86
2023/09/09 06:55:47;;;;;;;9.37;8.57;;;48.30;99.90;;;;;;5070685;28;20218;-82
2023/09/09 06:58:13;;;;;;;15.50;10.50;;;48.80;1.00;;;;;;5057610;28;21112;-84
2023/09/09 07:00:39;;;;;;;9.77;8.77;;;49.10;99.90;;;;;;5059697;28;20247;-82
2023/09/09 07:03:05;;;;;;;16.00;8.73;;;49.50;99.90;;;;;;5057090;28;20416;-82
2023/09/09 07:05:34;;;;;;;13.73;8.70;;;50.00;1.00;;;;;;5061035;28;20180;-83
2023/09/09 07:08:00;;;;;;;9.63;8.63;;;50.10;99.90;;;;;;5071322;28;20191;-80
2023/09/09 07:10:26;;;;;;;10.87;8.00;;;50.40;99.90;;;;;;5046392;28;20851;-82
2023/09/09 07:12:52;;;;;;;8.90;8.10;;;50.80;99.90;;;;;;5066729;28;20259;-83
2023/09/09 07:15:18;;;;;;;11.50;7.90;;;51.10;99.90;;;;;;5061299;28;20235;-82
2023/09/09 07:17:46;;;;;;;15.43;8.47;;;51.40;99.90;;;;;;5063790;28;20988;-83
2023/09/09 07:20:12;;;;;;;13.43;8.23;;;51.60;99.90;;;;;;5072609;28;20205;-83
2023/09/09 07:22:38;;;;;;;8.50;7.53;;;51.90;99.90;;;;;;5062963;28;20185;-83
2023/09/09 07:25:04;;;;;;;9.13;7.80;;;52.40;99.90;;;;;;5074936;28;20645;-82
2023/09/09 07:27:30;;;;;;;12.50;7.70;;;52.70;99.90;;;;;;5072594;28;20199;-83
2023/09/09 07:29:55;;;;;;;10.07;8.27;;;52.80;99.90;;;;;;5072038;28;20607;-83
2023/09/09 07:32:21;;;;;;;11.07;8.10;;;52.90;99.90;;;;;;5066482;28;20181;-83
2023/09/09 07:34:46;;;;;;;10.75;7.70;;;53.30;99.90;;;;;;5071853;28;20211;-80
2023/09/09 07:37:12;;;;;;;13.35;7.75;;;53.60;99.90;;;;;;5066796;28;20686;-81
2023/09/09 07:39:50;;;;;;;10.98;7.13;;;53.90;99.90;;;;;;5052524;28;20205;-81
2023/09/09 07:42:17;;;;;;;9.15;6.97;;;54.20;99.90;;;;;;5053342;28;20181;-82
2023/09/09 07:44:43;;;;;;;12.93;7.40;;;54.00;99.90;;;;;;5059584;28;20176;-81
2023/09/09 07:47:09;;;;;;;7.22;6.38;;;54.00;99.90;;;;;;5060887;28;20227;-80
2023/09/09 07:49:34;;;;;;;10.13;7.40;;;53.90;99.90;;;;;;5051812;28;20287;-81
2023/09/09 07:52:01;;;;;;;8.45;7.55;;;53.80;99.90;;;;;;5052484;28;20295;-82
2023/09/09 07:54:26;;;;;;;15.82;7.35;;;54.00;99.90;;;;;;5068406;28;20176;-79
2023/09/09 07:56:53;;;;;;;12.10;7.18;;;54.40;99.90;;;;;;5069846;28;20173;-83
2023/09/09 07:59:18;;;;;;;12.50;7.47;;;54.50;99.90;;;;;;5062907;28;20588;-81
2023/09/09 08:01:44;;;;;;;20.88;7.40;;;54.60;99.90;;;;;;5069748;28;20188;-82
2023/09/09 08:04:10;;;;;;;12.82;6.55;;;54.50;99.90;;;;;;5044077;28;20189;-81
2023/09/09 08:06:35;;;;;;;10.85;7.35;;;54.80;99.90;;;;;;5070000;28;20211;-80
2023/09/09 08:09:01;;;;;;;11.02;6.57;;;54.70;99.90;;;;;;5058942;28;20173;-82
2023/09/09 08:11:26;;;;;;;11.02;7.13;;;55.10;99.90;;;;;;5060925;28;20206;-80
2023/09/09 08:13:52;;;;;;;12.45;7.72;;;55.30;99.90;;;;;;5059074;28;20182;-81
2023/09/09 08:16:17;;;;;;;9.85;8.43;;;55.50;99.90;;;;;;5052855;28;20182;-81
2023/09/09 08:18:43;;;;;;;10.73;7.05;;;55.70;99.90;;;;;;5067054;28;20630;-82
2023/09/09 08:21:10;;;;;;;7.15;6.55;;;55.60;99.90;;;;;;5054898;28;20596;-80
2023/09/09 08:23:36;;;;;;;11.43;7.70;;;55.70;99.90;;;;;;5055007;28;20256;-81
2023/09/09 08:26:01;;;;;;;7.63;6.75;;;55.50;99.90;;;;;;5063422;28;20253;-82
2023/09/09 08:28:27;;;;;;;14.32;7.95;;;55.40;99.90;;;;;;5066574;28;20220;-80
2023/09/09 08:31:00;;;;;;;13.30;7.75;;;55.70;99.90;;;;;;5066045;28;20197;-82
2023/09/09 08:33:26;;;;;;;10.70;7.55;;;55.60;99.90;;;;;;5063838;28;20212;-83
2023/09/09 08:35:58;;;;;;;11.77;7.55;;;55.20;99.90;;;;;;5067898;28;20212;-82
2023/09/09 08:38:24;;;;;;;11.43;7.55;;;55.20;99.90;;;;;;5052010;28;20291;-82
2023/09/09 08:41:03;;;;;;;14.83;7.90;;;55.40;99.90;;;;;;5064965;28;20346;-81
2023/09/09 08:43:54;;;;;;;9.90;7.07;;;55.20;99.90;;;;;;5064206;28;21932;-80
2023/09/09 08:46:23;;;;;;;11.73;6.97;;;55.40;99.90;;;;;;5067727;28;20741;-81
2023/09/09 08:48:52;;;;;;;13.50;6.22;;;55.60;99.90;;;;;;5057210;28;20205;-82
2023/09/09 08:51:24;;;;;;;17.38;6.57;;;55.40;99.90;;;;;;5068320;28;20184;-83
2023/09/09 08:53:51;;;;;;;9.30;6.50;;;55.30;99.90;;;;;;5076460;28;20185;-80
2023/09/09 08:56:17;;;;;;;8.63;5.32;;;55.20;99.90;;;;;;5059138;28;20193;-82
2023/09/09 08:58:43;;;;;;;11.95;7.07;;;55.20;99.90;;;;;;5070794;28;20718;-83
2023/09/09 09:01:11;;;;;;;15.68;6.43;;;55.10;99.90;;;;;;5071476;28;20209;-82
2023/09/09 09:03:37;;;;;;;17.08;7.50;;;54.90;99.90;;;;;;5069716;28;20601;-80
2023/09/09 09:06:04;;;;;;;15.13;6.53;;;54.60;99.90;;;;;;5075292;28;20272;-82
2023/09/09 09:08:30;;;;;;;11.68;6.63;;;54.50;99.90;;;;;;5071026;28;20180;-83
2023/09/09 09:11:01;;;;;;;10.75;6.30;;;54.30;99.90;;;;;;5070042;28;20365;-83
2023/09/09 09:13:31;;;;;;;11.40;6.30;;;54.60;99.90;;;;;;5074033;28;20180;-82
2023/09/09 09:15:56;;;;;;;12.25;6.50;;;54.70;99.90;;;;;;5063468;28;20209;-81
2023/09/09 09:18:22;;;;;;;11.80;6.93;;;54.70;99.90;;;;;;5074034;28;20181;-83
2023/09/09 09:20:49;;;;;;;12.32;6.80;;;54.80;99.90;;;;;;5073040;28;20219;-82
2023/09/09 09:23:14;;;;;;;16.65;6.15;;;54.80;99.90;;;;;;5077161;28;20177;-83
2023/09/09 09:25:42;;;;;;;15.02;6.50;;;55.00;99.90;;;;;;5080383;28;20186;-82
2023/09/09 09:28:08;;;;;;;10.05;5.70;;;54.70;99.90;;;;;;5063511;28;20181;-81
2023/09/09 09:30:34;;;;;;;13.05;6.13;;;54.50;99.90;;;;;;5073107;28;20288;-81
2023/09/09 09:33:00;;;;;;;16.13;6.40;;;54.40;99.90;;;;;;5075419;28;20208;-82
2023/09/09 09:35:28;;;;;;;12.63;6.70;;;54.40;99.90;;;;;;5076633;28;20181;-82
2023/09/09 09:37:57;;;;;;;12.23;6.13;;;54.40;99.90;;;;;;5073604;28;20253;-81
2023/09/09 09:40:24;;;;;;;10.90;5.75;;;54.30;99.90;;;;;;5075958;28;20220;-84
2023/09/09 09:42:50;;;;;;;9.57;5.75;;;54.30;99.90;;;;;;5066358;28;20199;-82
2023/09/09 09:45:16;;;;;;;9.38;5.70;;;54.00;99.90;;;;;;5078806;28;20169;-82
2023/09/09 09:47:43;;;;;;;8.68;4.88;;;54.60;99.90;;;;;;5076913;28;20238;-82
2023/09/09 09:50:25;;;;;;;15.65;6.13;;;54.80;99.90;;;;;;5071068;28;20250;-81
2023/09/09 09:53:04;;;;;;;11.02;5.28;;;54.80;99.90;;;;;;5062671;28;20180;-81
2023/09/09 09:55:31;;;;;;;7.90;5.25;;;55.10;99.90;;;;;;5054418;28;20197;-82
2023/09/09 09:58:00;;;;;;;14.18;5.60;;;54.70;99.90;;;;;;5063984;28;20291;-81
2023/09/09 10:00:27;;;;;;;11.65;4.95;;;54.70;99.90;;;;;;5068428;28;20193;-83
2023/09/09 10:02:55;;;;;;;11.45;5.25;;;55.00;99.90;;;;;;5067373;28;20177;-81
2023/09/09 10:05:23;;;;;;;10.57;5.32;;;55.20;99.90;;;;;;5060855;28;20662;-82
2023/09/09 10:08:01;;;;;;;13.10;5.38;;;55.30;99.90;;;;;;5058618;28;20181;-81
2023/09/09 10:10:30;;;;;;;13.20;4.80;;;55.50;99.90;;;;;;5063768;28;20578;-82
2023/09/09 10:13:19;;;;;;;9.38;5.68;;;55.20;99.90;;;;;;5066098;28;20180;-84
2023/09/09 10:15:46;;;;;;;12.65;6.55;;;54.90;99.90;;;;;;5049430;28;20212;-80
2023/09/09 10:18:12;;;;;;;15.60;5.55;;;55.20;99.90;;;;;;5062288;28;20177;-80
2023/09/09 10:20:39;;;;;;;11.63;6.07;;;55.20;99.90;;;;;;5066227;28;20212;-83
2023/09/09 10:23:05;;;;;;;8.75;4.78;;;55.20;99.90;;;;;;5065967;28;20269;-79
2023/09/09 10:25:32;;;;;;;7.47;5.25;;;54.70;99.90;;;;;;5055378;28;20250;-82
2023/09/09 10:27:58;;;;;;;13.57;6.80;;;53.80;99.90;;;;;;5068571;28;20188;-82
2023/09/09 10:30:27;;;;;;;9.13;5.55;;;53.60;99.90;;;;;;5067418;28;20197;-83
2023/09/09 10:32:55;;;;;;;13.82;5.07;;;53.40;99.90;;;;;;5048566;28;20184;-81
2023/09/09 10:35:22;;;;;;;9.50;5.47;;;53.60;99.90;;;;;;5058192;28;20186;-81
2023/09/09 10:37:50;;;;;;;7.70;5.00;;;53.60;99.90;;;;;;5060022;28;20211;-81
2023/09/09 10:40:17;;;;;;;8.43;5.22;;;53.60;99.90;;;;;;5064647;28;20212;-84
2023/09/09 10:42:44;;;;;;;9.57;5.10;;;53.50;99.90;;;;;;5063972;28;20177;-81
2023/09/09 10:45:30;;;;;;;13.70;5.80;;;53.00;99.90;;;;;;5051103;28;20177;-82
2023/09/09 10:48:00;;;;;;;9.70;5.90;;;53.00;99.90;;;;;;5047156;28;20797;-80
2023/09/09 10:50:52;;;;;;;10.27;5.50;;;53.00;99.90;;;;;;5048347;28;20259;-84
2023/09/09 10:53:29;;;;;;;14.60;5.80;;;53.00;99.90;;;;;;5064022;28;20246;-80
2023/09/09 10:55:59;;;;;;;12.00;5.80;;;53.10;99.90;;;;;;5063856;28;20210;-81
2023/09/09 10:58:37;;;;;;;13.87;4.97;;;52.90;99.90;;;;;;5069318;28;20230;-82
2023/09/09 11:01:05;;;;;;;8.27;4.70;;;53.00;99.90;;;;;;5051106;28;20200;-81
2023/09/09 11:03:47;;;;;;;9.97;6.00;;;53.10;99.90;;;;;;5066658;28;20181;-80
2023/09/09 11:06:24;;;;;;;14.33;5.90;;;52.90;99.90;;;;;;5067455;28;20188;-81
2023/09/09 11:08:54;;;;;;;17.63;6.53;;;52.90;99.90;;;;;;5067715;28;20192;-80
2023/09/09 11:11:46;;;;;;;8.97;6.40;;;53.00;99.90;;;;;;5062757;28;20200;-81
2023/09/09 11:14:11;;;;;;;9.23;6.17;;;53.00;99.90;;;;;;5046395;28;20188;-82
2023/09/09 11:16:39;;;;;;;14.80;5.40;;;52.90;99.90;;;;;;5059389;28;20284;-81
2023/09/09 11:19:10;;;;;;;14.10;5.90;;;52.70;99.90;;;;;;5044693;28;20183;-79
2023/09/09 11:21:47;;;;;;;10.27;5.53;;;52.30;99.90;;;;;;5071089;28;20186;-81
2023/09/09 11:24:14;;;;;;;8.70;5.70;;;52.50;99.90;;;;;;5068349;28;20180;-82
2023/09/09 11:26:42;;;;;;;8.17;4.83;;;52.30;99.90;;;;;;5068522;28;20219;-81
2023/09/09 11:29:08;;;;;;;10.43;4.60;;;52.30;99.90;;;;;;5064562;28;20177;-80
2023/09/09 11:31:34;;;;;;;9.80;5.07;;;52.30;99.90;;;;;;5061758;28;20208;-81
2023/09/09 11:34:00;;;;;;;12.47;5.27;;;52.40;99.90;;;;;;5062858;28;20192;-81
2023/09/09 11:36:27;;;;;;;10.07;4.60;;;52.20;99.90;;;;;;5071036;28;20230;-81
2023/09/09 11:38:55;;;;;;;10.40;5.47;;;52.20;99.90;;;;;;5069977;28;20205;-79
2023/09/09 11:41:25;;;;;;;9.90;5.27;;;52.10;99.90;;;;;;5067186;28;20255;-80
2023/09/09 11:44:04;;;;;;;10.30;4.30;;;52.10;99.90;;;;;;5054396;28;20268;-80
2023/09/09 11:46:40;;;;;;;16.47;4.60;;;51.60;99.90;;;;;;5050535;28;20211;-83
2023/09/09 11:49:06;;;;;;;8.73;4.13;;;51.70;99.90;;;;;;5060983;28;20231;-82
2023/09/09 11:51:33;;;;;;;12.70;5.20;;;51.60;99.90;;;;;;5059341;28;20168;-80
2023/09/09 11:54:02;;;;;;;12.27;5.40;;;51.60;99.90;;;;;;5068951;28;20192;-78
2023/09/09 11:56:29;;;;;;;7.73;4.80;;;51.50;99.90;;;;;;5072598;28;20190;-81
2023/09/09 11:58:55;;;;;;;10.33;4.07;;;51.40;99.90;;;;;;5067973;28;20180;-80
2023/09/09 12:01:21;;;;;;;9.47;3.70;;;51.20;99.90;;;;;;5068075;28;21097;-83
2023/09/09 12:03:49;;;;;;;10.43;3.77;;;51.20;99.90;;;;;;5048000;28;20187;-81
2023/09/09 12:06:16;;;;;;;4.30;3.37;;;50.90;99.90;;;;;;5056887;28;20642;-82
2023/09/09 12:08:42;;;;;;;6.80;3.70;;;50.80;99.90;;;;;;5071319;28;20265;-81
2023/09/09 12:11:10;;;;;;;6.77;4.23;;;50.90;99.90;;;;;;5071478;28;20495;-81
2023/09/09 12:13:36;;;;;;;5.77;3.67;;;50.30;99.90;;;;;;5072383;28;20923;-78
2023/09/09 12:16:05;;;;;;;8.47;3.57;;;50.00;99.90;;;;;;5068481;28;20830;-81
2023/09/09 12:18:30;;;;;;;5.10;3.90;;;50.00;99.90;;;;;;5063799;28;20412;-81
2023/09/09 12:21:03;;;;;;;6.63;3.47;;;50.10;99.90;;;;;;5067704;28;20509;-79
2023/09/09 12:23:34;;;;;;;7.80;3.53;;;49.60;99.90;;;;;;5072959;28;20177;-81
2023/09/09 12:26:20;;;;;;;8.13;4.00;;;49.60;99.90;;;;;;5067102;28;20917;-80
2023/09/09 12:29:02;;;;;;;16.53;3.97;;;49.50;99.90;;;;;;5068855;28;20440;-81
2023/09/09 12:31:28;;;;;;;8.10;4.57;;;49.40;99.90;;;;;;5071005;28;20420;-80
2023/09/09 12:33:54;;;;;;;6.07;3.70;;;49.40;99.90;;;;;;5064063;28;20410;-80
2023/09/09 12:36:21;;;;;;;7.80;3.70;;;49.20;99.90;;;;;;5047805;28;20216;-80